Au Sable, Michigan
Current Conditions -  °F | °C
As of 7:33 PM on Friday 21 Nov 2014 (Local Time) from KOSC Reporting Station
Scattered Clouds Scattered Clouds  
Wind Chill: 11°   Ceiling: Unl
Heat Index: 24°   Visibility: 10mi
Dew Point: 15°   Wind: 15mph
Humidity: 69%   Direction: 210°SSW
Pressure: 30.29"   Gusts: 21mph
Location:  44.4539°N, 83.4813°W
Report Text: KOSC 220033Z AUTO 21013G18KT 10SM SCT110 M04/M09 A3029 RMK AO2 T10451095
Loading
Personal Weather Stations






























Interactive Weather Map New forecast layout! Learn more

10-Day Weather Forecast

Advertisements
Track Severe Weather on mobile